Villa del Rosario, Puerto Rico
Current Conditions -  °F | °C
As of 8:53 PM on Saturday 25 Oct 2014 (Local Time) from TJNR Reporting Station
Clear Clear  
Wind Chill: 82°   Ceiling: Unl
Heat Index: 89°   Visibility: 10mi
Dew Point: 75°   Wind: 9mph
Humidity: 79%   Direction: 180°S
Pressure: 29.92"   Gusts: NA
Location:  18.2147°N, 65.7358°W
Report Text: TJNR 260053Z AUTO 18008KT 10SM CLR 28/24 A2992 RMK AO2 SLP131 T02780239 $
Loading
Personal Weather Stations






























Interactive Weather Map
Tropical Storm Tracking
New forecast layout! Learn more

10-Day Weather Forecast

Advertisements
Track Severe Weather on mobile